createdAt,value
2023-04-14T00:00:49.259Z,9.00
2023-04-14T00:02:22.477Z,9.01
2023-04-14T00:03:56.008Z,9.04
2023-04-14T00:05:30.523Z,9.02
2023-04-14T00:07:05.113Z,8.96
2023-04-14T00:08:38.350Z,8.91
2023-04-14T00:10:12.158Z,8.89
2023-04-14T00:11:45.763Z,8.82
2023-04-14T00:13:18.988Z,8.81
2023-04-14T00:14:52.156Z,8.83
2023-04-14T00:16:25.782Z,8.76
2023-04-14T00:17:59.230Z,8.62
2023-04-14T00:19:32.544Z,8.64
2023-04-14T00:21:05.765Z,8.62
2023-04-14T00:22:40.363Z,8.58
2023-04-14T00:24:13.932Z,8.59
2023-04-14T00:25:47.441Z,8.48
2023-04-14T00:27:20.668Z,8.32
2023-04-14T00:28:53.838Z,8.29
2023-04-14T00:30:27.145Z,8.26
2023-04-14T00:32:00.702Z,8.34
2023-04-14T00:33:37.405Z,8.38
2023-04-14T00:35:10.996Z,8.42
2023-04-14T00:36:44.765Z,8.47
2023-04-14T00:38:19.586Z,8.53
2023-04-14T00:39:51.662Z,8.57
2023-04-14T00:41:25.060Z,8.58
2023-04-14T00:42:58.366Z,8.53
2023-04-14T00:44:31.845Z,8.53
2023-04-14T00:46:05.045Z,8.36
2023-04-14T00:47:37.617Z,8.14
2023-04-14T00:49:11.451Z,7.95
2023-04-14T00:50:45.044Z,7.84
2023-04-14T00:52:18.256Z,7.68
2023-04-14T00:53:54.943Z,7.65
2023-04-14T00:55:27.572Z,7.67
2023-04-14T00:57:02.019Z,7.72
2023-04-14T00:58:36.624Z,7.75
2023-04-14T01:00:11.295Z,7.76
2023-04-14T01:01:45.088Z,7.81
2023-04-14T01:03:18.530Z,7.86
2023-04-14T01:04:54.565Z,7.91
2023-04-14T01:06:28.370Z,7.98
2023-04-14T01:08:02.364Z,8.02
2023-04-14T01:09:37.555Z,8.06
2023-04-14T01:11:18.377Z,8.08
2023-04-14T01:13:07.455Z,8.12
2023-04-14T01:14:46.416Z,8.11
2023-04-14T01:16:27.383Z,8.17
2023-04-14T01:18:10.085Z,8.23
2023-04-14T01:20:04.729Z,8.17
2023-04-14T01:21:44.969Z,8.18
2023-04-14T01:23:25.897Z,8.23
2023-04-14T01:25:22.245Z,8.22
2023-04-14T01:27:04.854Z,8.24
2023-04-14T01:29:10.527Z,8.24
2023-04-14T01:31:00.773Z,8.25
2023-04-14T01:32:41.271Z,8.19
2023-04-14T01:34:21.317Z,8.21
2023-04-14T01:35:57.186Z,8.26
2023-04-14T01:37:36.562Z,8.21
2023-04-14T01:39:14.300Z,8.19
2023-04-14T01:40:52.590Z,8.12
2023-04-14T01:42:29.344Z,8.11
2023-04-14T01:44:05.498Z,8.07
2023-04-14T01:45:43.181Z,7.79
2023-04-14T01:47:21.558Z,7.78
2023-04-14T01:48:57.464Z,7.68
2023-04-14T01:50:32.753Z,7.44
2023-04-14T01:52:10.546Z,7.44
2023-04-14T01:53:46.381Z,7.52
2023-04-14T01:55:22.030Z,7.58
2023-04-14T01:56:57.130Z,7.62
2023-04-14T01:58:32.521Z,7.69
2023-04-14T02:00:10.231Z,7.76
2023-04-14T02:01:51.474Z,7.76
2023-04-14T02:03:26.988Z,7.75
2023-04-14T02:05:03.071Z,7.74
2023-04-14T02:06:38.502Z,7.75
2023-04-14T02:08:12.973Z,7.70
2023-04-14T02:09:47.321Z,7.67
2023-04-14T02:11:20.813Z,7.63
2023-04-14T02:12:56.663Z,7.56
2023-04-14T02:14:32.120Z,7.53
2023-04-14T02:16:09.793Z,7.40
2023-04-14T02:17:44.169Z,7.35
2023-04-14T02:19:21.135Z,7.36
2023-04-14T02:20:58.934Z,7.37
2023-04-14T02:22:32.397Z,7.36
2023-04-14T02:24:07.484Z,7.30
2023-04-14T02:25:45.831Z,7.25
2023-04-14T02:27:27.056Z,7.14
2023-04-14T02:29:08.409Z,7.12
2023-04-14T02:30:45.900Z,7.15
2023-04-14T02:32:23.368Z,7.09
2023-04-14T02:33:59.037Z,7.08
2023-04-14T02:35:40.063Z,7.07
2023-04-14T02:37:20.488Z,7.06
2023-04-14T02:38:58.108Z,7.18
2023-04-14T02:40:33.182Z,7.18
2023-04-14T02:42:14.196Z,7.23
2023-04-14T02:43:51.626Z,7.24
2023-04-14T02:45:28.758Z,7.25
2023-04-14T02:47:07.670Z,7.21
2023-04-14T02:48:47.721Z,7.22
2023-04-14T02:50:23.285Z,7.23
2023-04-14T02:52:18.724Z,7.24
2023-04-14T02:53:52.773Z,7.17
2023-04-14T02:55:35.686Z,7.11
2023-04-14T02:57:09.181Z,7.08
2023-04-14T02:58:45.845Z,6.97
2023-04-14T03:00:20.329Z,6.94
2023-04-14T03:01:59.858Z,6.94
2023-04-14T03:03:37.588Z,6.95
2023-04-14T03:05:14.452Z,6.93
2023-04-14T03:07:06.072Z,6.85
2023-04-14T03:08:41.834Z,6.89
2023-04-14T03:10:18.968Z,6.89
2023-04-14T03:11:56.795Z,6.91
2023-04-14T03:13:34.018Z,6.94
2023-04-14T03:15:08.761Z,6.93
2023-04-14T03:16:42.789Z,6.94
2023-04-14T03:18:17.096Z,6.93
2023-04-14T03:19:58.678Z,6.94
2023-04-14T03:21:39.005Z,6.96
2023-04-14T03:23:15.315Z,7.00
2023-04-14T03:24:59.580Z,7.01
2023-04-14T03:26:46.566Z,7.02
2023-04-14T03:28:27.756Z,7.01
2023-04-14T03:30:07.250Z,6.87
2023-04-14T03:31:44.944Z,6.83
2023-04-14T03:33:22.592Z,6.78
2023-04-14T03:34:59.153Z,6.74
2023-04-14T03:36:35.706Z,6.68
2023-04-14T03:38:11.287Z,6.61
2023-04-14T03:39:45.750Z,6.50
2023-04-14T03:41:22.269Z,6.43
2023-04-14T03:42:58.463Z,6.45
2023-04-14T03:44:36.513Z,6.42
2023-04-14T03:46:11.163Z,6.40
2023-04-14T03:47:48.110Z,6.35
2023-04-14T03:49:24.575Z,6.33
2023-04-14T03:51:02.477Z,6.18
2023-04-14T03:52:39.223Z,6.12
2023-04-14T03:54:16.744Z,6.10
2023-04-14T03:55:53.274Z,6.18
2023-04-14T03:57:32.596Z,6.03
2023-04-14T03:59:09.629Z,5.97
2023-04-14T04:00:46.482Z,5.99
2023-04-14T04:02:23.921Z,5.97
2023-04-14T04:03:59.376Z,6.03
2023-04-14T04:05:36.815Z,6.05
2023-04-14T04:07:14.160Z,6.05
2023-04-14T04:08:51.059Z,6.08
2023-04-14T04:10:23.797Z,6.16
2023-04-14T04:12:01.610Z,6.27
2023-04-14T04:13:40.088Z,6.35
2023-04-14T04:15:13.652Z,6.44
2023-04-14T04:16:51.011Z,6.53
2023-04-14T04:18:28.242Z,6.57
2023-04-14T04:20:07.361Z,6.50
2023-04-14T04:21:43.724Z,6.38
2023-04-14T04:23:18.503Z,6.28
2023-04-14T04:24:52.884Z,6.22
2023-04-14T04:26:33.372Z,6.18
2023-04-14T04:28:08.901Z,6.08
2023-04-14T04:29:42.989Z,6.24
2023-04-14T04:31:17.350Z,6.27
2023-04-14T04:32:52.021Z,6.33
2023-04-14T04:34:26.310Z,6.43
2023-04-14T04:36:02.100Z,6.53
2023-04-14T04:37:44.902Z,6.63
2023-04-14T04:39:18.905Z,6.63
2023-04-14T04:40:52.616Z,6.66
2023-04-14T04:42:29.357Z,6.78
2023-04-14T04:44:03.207Z,6.93
2023-04-14T04:46:01.201Z,7.09
2023-04-14T04:47:35.599Z,7.19
2023-04-14T04:49:08.856Z,7.40
2023-04-14T04:50:42.726Z,7.63
2023-04-14T04:52:16.286Z,7.82
2023-04-14T04:53:49.583Z,8.00
2023-04-14T04:55:22.724Z,8.29
2023-04-14T04:56:54.935Z,8.66
2023-04-14T04:58:28.768Z,8.99
2023-04-14T05:00:04.113Z,9.31
2023-04-14T05:01:38.146Z,9.69
2023-04-14T05:03:12.119Z,10.17
2023-04-14T05:04:45.184Z,10.53
2023-04-14T05:06:18.393Z,11.04
2023-04-14T05:07:50.783Z,11.32
2023-04-14T05:09:24.401Z,11.67
2023-04-14T05:10:57.038Z,12.05
2023-04-14T05:12:30.477Z,12.46
2023-04-14T05:14:04.294Z,12.75
2023-04-14T05:15:37.929Z,12.93
2023-04-14T05:17:12.897Z,13.12
2023-04-14T05:18:46.208Z,13.14
2023-04-14T05:20:19.681Z,13.31
2023-04-14T05:21:52.974Z,13.47
2023-04-14T05:23:26.612Z,13.54
2023-04-14T05:24:59.965Z,13.63
2023-04-14T05:26:51.663Z,13.96
2023-04-14T05:28:27.170Z,14.20
2023-04-14T05:30:00.708Z,14.22
2023-04-14T05:31:34.194Z,14.12
2023-04-14T05:33:08.756Z,13.93
2023-04-14T05:34:42.206Z,14.09
2023-04-14T05:36:18.309Z,14.22
2023-04-14T05:37:53.584Z,14.18
2023-04-14T05:39:27.236Z,14.40
2023-04-14T05:41:00.606Z,14.79
2023-04-14T05:42:34.079Z,15.09
2023-04-14T05:44:07.243Z,15.21
2023-04-14T05:45:40.581Z,15.46
2023-04-14T05:47:14.577Z,15.71
2023-04-14T05:48:49.640Z,15.82
2023-04-14T05:50:23.482Z,15.87
2023-04-14T05:51:57.798Z,15.92
2023-04-14T05:53:31.487Z,15.85
2023-04-14T05:55:05.456Z,15.94
2023-04-14T05:56:38.630Z,16.12
2023-04-14T05:58:12.835Z,16.53
2023-04-14T05:59:46.304Z,16.76
2023-04-14T06:01:19.626Z,16.77
2023-04-14T06:02:53.023Z,16.86
2023-04-14T06:04:28.234Z,17.01
2023-04-14T06:06:01.844Z,17.32
2023-04-14T06:07:35.627Z,17.76
2023-04-14T06:09:09.032Z,18.10
2023-04-14T06:10:42.409Z,18.20
2023-04-14T06:12:15.968Z,18.26
2023-04-14T06:13:50.577Z,18.58
2023-04-14T06:15:27.043Z,18.76
2023-04-14T06:17:00.280Z,18.86
2023-04-14T06:18:33.971Z,18.67
2023-04-14T06:20:10.582Z,18.49
2023-04-14T06:21:43.700Z,18.64
2023-04-14T06:23:21.623Z,18.79
2023-04-14T06:24:55.010Z,18.70
2023-04-14T06:26:28.422Z,18.89
2023-04-14T06:28:03.674Z,19.05
2023-04-14T06:29:37.289Z,19.04
2023-04-14T06:31:10.947Z,19.00
2023-04-14T06:32:44.671Z,19.13
2023-04-14T06:34:17.847Z,19.18
2023-04-14T06:35:52.511Z,19.06
2023-04-14T06:37:26.400Z,18.87
2023-04-14T06:39:00.204Z,18.45
2023-04-14T06:40:33.596Z,18.10
2023-04-14T06:42:06.809Z,17.98
2023-04-14T06:43:42.848Z,17.61
2023-04-14T06:45:16.500Z,17.20
2023-04-14T06:46:49.651Z,17.03
2023-04-14T06:48:22.785Z,16.77
2023-04-14T06:49:56.771Z,16.56
2023-04-14T06:51:32.695Z,16.33
2023-04-14T06:53:06.424Z,16.06
2023-04-14T06:54:39.608Z,15.86
2023-04-14T06:56:13.101Z,15.82
2023-04-14T06:57:46.960Z,15.92
